Hovedside
METAR-TAF:

METAR-TAF

Lufthavner :

King Shaka internasjonale lufthavn

Durban, Sør-Afrika

breddegrad: 29-36-52S, lengdegrad: 031-06-59E, høyde over havet: 90 m

Gjeldene værobservasjon

Denne rapporten ble laget for 29 minutter siden, klokken 02:00 UTC
Vind 2 kt fra Sør
Temperatur 11°C
Luftfuktighet 94%
Trykk 1026 hPa
Sikt 10 km eller mer
Få skyer i en høyde av 2500 ft

METAR: FALE 140200Z 18002KT 9999 FEW025 11/10 Q1026 NOSIG

Tid: 04:29 (02:29 UTC)

Varsel

Denne rapporten ble laget for 4 timer og 29 minutter siden, klokken 22:00 UTC
Varsel gyldig fra 14. klokken 00 UTC til 15. klokken 06 UTC
Vind 3 kt fra skiftende retning
Sikt 10 km eller mer
ingen skyer under 1500 m og ingen bygeskyer
Blir
fra 14. klokken 10 UTC til 14. klokken 12 UTC
Vind 11 kt fra Nordøst
Blir
fra 14. klokken 19 UTC til 14. klokken 21 UTC
Vind 3 kt fra skiftende retning

TAF: FALE 132200Z 1400/1506 VRB03KT CAVOK TX23/1412Z TN11/1504Z BECMG 1410/1412 05011KT BECMG 1419/1421 VRB03KT

Værobservasjoner og værvarsel for over 4000 flyplasser (METAR- og TAF-rapporter).

Tilgjengelige stasjoner er representert av de røde og gule prikkene på kartet.

Hold musepekeren over prikken for å se navnet på stasjonen.

Klikk så for å se værobservasjoner og -varsler.

For å forandre kartet kan du klikke på den grønne knappen med svart kryss for å zoome inn, på den grønne knappen med strek for å zoome ut, eller på de grønne pilene for å se tilstøtende kart.


METAR-TAF: